Time;durP1;ratioP1;P1;durP2;ratioP2;P2;SDS_P1;SDS_P2;PMS_P1;PMS_P2;Temp;Humidity;BMP_temperature;BMP_pressure;BME280_temperature;BME280_humidity;BME280_pressure;Samples;Min_cycle;Max_cycle;Signal;HPM_P1;HPM_P2
2023/01/01 00:00:03;;;;;;;37.75;21.83;;;9.30;99.90;;;;;;5053976;28;20025;-56
2023/01/01 00:02:29;;;;;;;28.95;20.30;;;9.20;99.90;;;;;;5053953;28;20086;-52
2023/01/01 00:04:55;;;;;;;30.17;18.63;;;9.10;99.90;;;;;;5051880;28;20049;-55
2023/01/01 00:07:20;;;;;;;29.02;19.27;;;9.20;99.90;;;;;;5053821;28;20044;-56
2023/01/01 00:12:32;;;;;;;25.42;15.88;;;9.20;99.90;;;;;;5053166;28;20133;-55
2023/01/01 00:14:57;;;;;;;20.85;13.85;;;9.20;99.90;;;;;;5053659;28;20029;-56
2023/01/01 00:17:24;;;;;;;21.65;16.17;;;;;;;;;;5053617;28;20033;-57
2023/01/01 00:19:49;;;;;;;22.83;14.60;;;9.20;99.90;;;;;;5053042;28;20141;-54
2023/01/01 00:22:16;;;;;;;22.00;15.85;;;9.10;99.90;;;;;;5051862;28;20128;-54
2023/01/01 00:24:42;;;;;;;21.80;16.20;;;9.20;99.90;;;;;;5053389;28;20041;-57
2023/01/01 00:27:07;;;;;;;21.85;14.68;;;9.40;99.90;;;;;;5053149;28;20029;-53
2023/01/01 00:29:33;;;;;;;22.50;15.68;;;9.30;99.90;;;;;;5053326;28;20043;-56
2023/01/01 00:31:59;;;;;;;28.50;16.80;;;9.30;99.90;;;;;;5051325;28;20519;-55
2023/01/01 00:34:25;;;;;;;27.40;17.58;;;9.40;99.90;;;;;;5053283;28;20641;-56
2023/01/01 00:36:50;;;;;;;40.35;22.63;;;9.50;99.90;;;;;;5053427;28;20036;-53
2023/01/01 00:39:16;;;;;;;42.35;22.40;;;9.30;99.90;;;;;;5053148;28;20033;-55
2023/01/01 00:41:42;;;;;;;42.22;21.30;;;9.40;99.90;;;;;;5053103;28;20028;-53
2023/01/01 00:44:08;;;;;;;31.02;18.75;;;9.40;99.90;;;;;;5053077;28;20040;-53
2023/01/01 00:46:34;;;;;;;31.40;19.55;;;9.50;99.90;;;;;;5053279;28;20384;-53
2023/01/01 00:48:59;;;;;;;26.02;17.38;;;9.40;99.90;;;;;;5053571;28;20136;-56
2023/01/01 00:51:25;;;;;;;22.58;15.93;;;9.40;99.90;;;;;;5052791;28;20532;-54
2023/01/01 00:53:51;;;;;;;23.55;15.52;;;9.30;99.90;;;;;;5053137;28;20033;-53
2023/01/01 00:56:17;;;;;;;25.00;16.65;;;9.30;99.90;;;;;;5053010;28;20384;-55
2023/01/01 00:58:43;;;;;;;24.42;15.90;;;9.30;99.90;;;;;;5051263;28;20051;-53
2023/01/01 01:01:09;;;;;;;22.10;15.70;;;9.60;99.90;;;;;;5052840;28;20044;-56
2023/01/01 01:03:37;;;;;;;22.10;15.98;;;9.60;99.90;;;;;;5051829;28;20037;-55
2023/01/01 01:06:03;;;;;;;21.45;15.23;;;9.50;99.90;;;;;;5051154;28;20095;-56
2023/01/01 01:08:33;;;;;;;21.25;15.57;;;9.40;99.90;;;;;;5053207;28;20416;-57
2023/01/01 01:11:12;;;;;;;18.67;14.23;;;9.20;99.90;;;;;;5053022;28;20072;-57
2023/01/01 01:13:39;;;;;;;20.20;15.13;;;9.10;99.90;;;;;;5052973;28;20112;-56
2023/01/01 01:16:17;;;;;;;24.58;17.35;;;9.40;99.90;;;;;;5052974;28;20047;-55
2023/01/01 01:18:44;;;;;;;24.42;16.98;;;9.20;99.90;;;;;;5052894;28;20028;-56
2023/01/01 01:21:14;;;;;;;34.38;20.98;;;9.30;99.90;;;;;;5052653;28;20119;-56
2023/01/01 01:23:39;;;;;;;50.88;31.15;;;9.50;99.90;;;;;;5052664;28;20049;-54
2023/01/01 01:26:10;;;;;;;77.95;42.55;;;9.60;99.90;;;;;;5052668;28;20033;-55
2023/01/01 01:28:36;;;;;;;75.05;43.28;;;9.60;99.90;;;;;;5052724;28;20082;-57
2023/01/01 01:31:02;;;;;;;82.13;46.70;;;9.90;99.90;;;;;;5053226;28;20032;-56
2023/01/01 01:33:27;;;;;;;111.25;59.17;;;9.90;99.90;;;;;;5056732;28;20041;-57
2023/01/01 01:35:53;;;;;;;486.65;224.27;;;9.80;99.90;;;;;;5056738;28;20112;-53
2023/01/01 01:38:19;;;;;;;249.43;104.97;;;9.80;99.90;;;;;;5057025;28;20037;-56
2023/01/01 01:40:45;;;;;;;123.25;62.20;;;;;;;;;;5056549;28;20090;-54
2023/01/01 01:43:29;;;;;;;58.45;35.70;;;;;;;;;;5056738;28;20033;-54
2023/01/01 01:45:57;;;;;;;40.25;27.08;;;;;;;;;;5056287;28;20365;-56
2023/01/01 01:48:23;;;;;;;43.88;30.65;;;;;;;;;;5036471;28;20120;-56
2023/01/01 01:50:51;;;;;;;46.25;32.88;;;;;;;;;;5036626;28;20068;-54
2023/01/01 01:53:18;;;;;;;50.08;32.95;;;;;;;;;;5036411;28;20041;-53
2023/01/01 01:55:49;;;;;;;53.47;34.08;;;9.20;99.90;;;;;;5036525;28;20116;-54
2023/01/01 01:58:16;;;;;;;55.88;37.53;;;8.70;99.90;;;;;;5036405;28;20025;-55
2023/01/01 02:00:42;;;;;;;50.03;35.30;;;8.40;99.90;;;;;;5036274;28;20029;-54
2023/01/01 02:03:27;;;;;;;46.08;32.28;;;8.20;99.90;;;;;;5036529;28;20086;-56
2023/01/01 02:05:53;;;;;;;44.47;31.77;;;8.40;99.90;;;;;;5036332;28;20035;-52
2023/01/01 02:08:20;;;;;;;47.75;32.55;;;8.50;99.90;;;;;;5035963;28;20041;-53
2023/01/01 02:10:46;;;;;;;40.95;30.08;;;8.50;99.90;;;;;;5036104;28;20065;-56
2023/01/01 02:13:13;;;;;;;45.53;32.75;;;8.40;99.90;;;;;;5035991;28;20041;-52
2023/01/01 02:16:03;;;;;;;44.40;32.25;;;8.50;99.90;;;;;;5036167;28;20159;-54
2023/01/01 02:18:42;;;;;;;42.42;27.90;;;8.50;99.90;;;;;;5036370;28;20449;-55
2023/01/01 02:21:16;;;;;;;39.92;28.73;;;8.50;99.90;;;;;;5035932;28;20029;-53
2023/01/01 02:23:57;;;;;;;39.08;27.30;;;8.50;99.90;;;;;;5035915;28;20168;-53
2023/01/01 02:26:58;;;;;;;31.97;23.53;;;8.50;99.90;;;;;;5036097;28;20030;-54
2023/01/01 02:29:39;;;;;;;28.15;20.33;;;8.50;99.90;;;;;;4974741;28;20284;-53
2023/01/01 02:32:21;;;;;;;39.42;23.05;;;8.30;99.90;;;;;;4972144;28;20383;-57
2023/01/01 02:38:04;;;;;;;26.92;19.30;;;8.40;99.90;;;;;;4974807;28;20154;-55
2023/01/01 02:40:30;;;;;;;;;;;8.40;99.90;;;;;;4975011;28;20050;-56
2023/01/01 02:42:57;;;;;;;29.60;21.20;;;8.60;99.90;;;;;;4973816;28;19911;-52
2023/01/01 02:45:23;;;;;;;34.00;23.58;;;8.60;99.90;;;;;;4974154;28;20039;-54
2023/01/01 02:47:49;;;;;;;31.48;21.95;;;8.80;99.90;;;;;;4974717;28;20078;-56
2023/01/01 02:50:19;;;;;;;39.67;26.13;;;8.90;99.90;;;;;;4974587;28;20057;-54
2023/01/01 02:53:03;;;;;;;30.92;21.98;;;9.00;99.90;;;;;;4974288;28;20070;-52
2023/01/01 02:56:00;;;;;;;27.70;21.40;;;9.10;99.90;;;;;;4974218;28;20491;-56
2023/01/01 03:01:19;;;;;;;32.65;22.65;;;9.30;99.90;;;;;;4974458;28;20130;-53
2023/01/01 03:03:55;;;;;;;35.00;22.20;;;9.30;99.90;;;;;;4974081;28;20130;-55
2023/01/01 03:06:33;;;;;;;27.08;20.83;;;9.30;99.90;;;;;;5021226;28;20041;-56
2023/01/01 03:09:30;;;;;;;34.50;23.50;;;9.00;99.90;;;;;;5035508;28;20079;-52
2023/01/01 03:12:11;;;;;;;34.53;22.00;;;8.90;99.90;;;;;;5035064;28;20029;-52
2023/01/01 03:14:57;;;;;;;31.80;22.17;;;8.80;99.90;;;;;;5034933;28;20456;-56
2023/01/01 03:17:25;;;;;;;27.20;19.38;;;8.80;99.90;;;;;;5035020;28;20036;-55
2023/01/01 03:19:55;;;;;;;31.70;21.02;;;8.60;99.90;;;;;;5035120;28;20056;-54
2023/01/01 03:22:25;;;;;;;33.00;23.30;;;8.60;99.90;;;;;;4993366;28;20046;-53
2023/01/01 03:25:03;;;;;;;33.28;21.90;;;8.50;99.90;;;;;;4993137;28;20077;-54
2023/01/01 03:27:38;;;;;;;34.78;22.27;;;8.60;99.90;;;;;;4960628;28;20054;-55
2023/01/01 03:30:08;;;;;;;28.42;21.15;;;8.90;99.90;;;;;;4993256;28;20039;-52
2023/01/01 03:33:06;;;;;;;31.55;21.77;;;9.00;99.90;;;;;;4960778;28;20053;-55
2023/01/01 03:35:50;;;;;;;32.05;22.15;;;8.90;99.90;;;;;;4993018;28;20085;-56
2023/01/01 03:38:28;;;;;;;50.50;27.33;;;8.70;99.90;;;;;;4993093;28;20081;-55
2023/01/01 03:40:59;;;;;;;32.00;20.98;;;8.60;99.90;;;;;;4992984;28;20150;-53
2023/01/01 03:43:48;;;;;;;27.98;20.52;;;8.60;99.90;;;;;;4993011;28;20061;-56
2023/01/01 03:46:19;;;;;;;26.00;18.88;;;8.50;99.90;;;;;;4992809;28;20041;-53
2023/01/01 03:48:57;;;;;;;26.45;19.33;;;8.50;99.90;;;;;;4992875;28;20050;-54
2023/01/01 03:51:43;;;;;;;28.38;18.75;;;;;;;;;;4992499;28;20062;-55
2023/01/01 03:54:26;;;;;;;26.45;19.15;;;;;;;;;;5027649;28;20386;-52
2023/01/01 03:56:57;;;;;;;27.30;18.05;;;;;;;;;;5034067;28;20086;-55
2023/01/01 03:59:49;;;;;;;23.58;17.38;;;;;;;;;;5034400;28;20036;-54
2023/01/01 04:02:19;;;;;;;24.85;17.80;;;;;;;;;;5034063;28;20064;-55
2023/01/01 04:04:46;;;;;;;22.58;16.58;;;;;;;;;;5033782;28;20041;-55
2023/01/01 04:07:12;;;;;;;23.13;16.00;;;;;;;;;;5033919;28;20477;-53
2023/01/01 04:09:40;;;;;;;22.88;16.75;;;;;;;;;;5033861;28;20029;-55
2023/01/01 04:12:06;;;;;;;25.67;17.00;;;;;;;;;;5033884;28;20412;-52
2023/01/01 04:14:42;;;;;;;21.85;16.20;;;;;;;;;;5034366;28;20057;-53
2023/01/01 04:17:09;;;;;;;25.95;17.95;;;;;;;;;;5033705;28;20120;-53
2023/01/01 04:19:35;;;;;;;22.60;15.55;;;;;;;;;;5033632;28;20477;-55
2023/01/01 04:22:02;;;;;;;28.60;17.08;;;;;;;;;;5015186;28;20049;-55
2023/01/01 04:24:28;;;;;;;23.67;16.20;;;;;;;;;;5033573;28;20049;-55
2023/01/01 04:26:54;;;;;;;26.38;17.00;;;;;;;;;;4998925;28;20156;-53
2023/01/01 04:29:21;;;;;;;23.27;15.68;;;8.30;99.90;;;;;;5033514;28;20036;-55
2023/01/01 04:31:48;;;;;;;24.27;16.38;;;8.30;99.90;;;;;;5033548;28;20141;-53
2023/01/01 04:34:14;;;;;;;20.77;15.10;;;8.30;99.90;;;;;;5033554;28;20044;-54
2023/01/01 04:36:40;;;;;;;20.30;15.10;;;8.20;99.90;;;;;;5031546;28;20064;-53
2023/01/01 04:39:06;;;;;;;24.00;14.40;;;8.30;99.90;;;;;;5033684;28;20041;-54
2023/01/01 04:41:33;;;;;;;18.17;13.23;;;;;;;;;;5033356;28;20022;-53
2023/01/01 04:43:59;;;;;;;19.48;13.57;;;8.00;99.90;;;;;;5033356;28;20045;-52
2023/01/01 04:46:25;;;;;;;14.50;10.20;;;8.00;99.90;;;;;;5039293;28;20135;-52
2023/01/01 04:48:50;;;;;;;23.42;10.32;;;8.00;99.90;;;;;;5051120;28;20432;-53
2023/01/01 04:51:18;;;;;;;15.85;10.82;;;8.00;99.90;;;;;;5050934;28;20036;-53
2023/01/01 04:53:45;;;;;;;15.38;10.02;;;7.90;99.90;;;;;;5034494;28;20492;-53
2023/01/01 04:56:18;;;;;;;11.63;6.97;;;7.90;99.90;;;;;;5053110;28;20112;-55
2023/01/01 04:58:44;;;;;;;14.57;9.02;;;7.90;99.90;;;;;;5052899;28;20534;-56
2023/01/01 05:01:23;;;;;;;15.60;8.88;;;7.80;99.90;;;;;;5052400;28;20043;-52
2023/01/01 05:03:49;;;;;;;12.18;7.13;;;7.60;99.90;;;;;;5053243;28;20464;-54
2023/01/01 05:06:15;;;;;;;12.35;7.80;;;7.60;99.90;;;;;;5052407;28;20131;-55
2023/01/01 05:08:44;;;;;;;7.10;5.05;;;7.50;99.90;;;;;;5052774;28;20480;-52
2023/01/01 05:11:16;;;;;;;11.48;6.50;;;7.40;99.90;;;;;;5052669;28;20033;-54
2023/01/01 05:13:42;;;;;;;;;;;;;;;;;;5053371;28;20032;-54
2023/01/01 05:16:11;;;;;;;11.15;6.65;;;7.10;99.90;;;;;;5052999;28;19909;-54
2023/01/01 05:18:38;;;;;;;11.10;7.47;;;7.00;99.90;;;;;;5052920;28;20056;-56
2023/01/01 05:21:07;;;;;;;12.23;9.38;;;6.90;99.90;;;;;;5052650;28;20044;-56
2023/01/01 05:23:33;;;;;;;15.15;8.75;;;6.90;99.90;;;;;;5052238;28;20496;-52
2023/01/01 05:26:00;;;;;;;20.83;8.65;;;7.00;99.90;;;;;;5052841;28;20033;-53
2023/01/01 05:28:26;;;;;;;14.15;9.52;;;6.70;99.90;;;;;;5053194;28;20071;-54
2023/01/01 05:30:52;;;;;;;14.15;9.57;;;6.50;99.90;;;;;;5052503;28;20025;-56
2023/01/01 05:33:19;;;;;;;14.52;9.82;;;6.30;99.90;;;;;;5053038;28;20036;-56
2023/01/01 05:35:51;;;;;;;13.45;8.52;;;6.40;99.90;;;;;;5068306;28;20087;-54
2023/01/01 05:38:16;;;;;;;12.98;8.48;;;6.40;99.90;;;;;;5052237;28;20021;-53
2023/01/01 05:40:42;;;;;;;11.32;8.35;;;6.60;99.90;;;;;;5052155;28;20121;-55
2023/01/01 05:43:08;;;;;;;15.45;8.63;;;6.70;99.90;;;;;;5052054;28;20089;-55
2023/01/01 05:45:34;;;;;;;13.95;8.32;;;6.80;99.90;;;;;;5052045;28;20055;-52
2023/01/01 05:47:59;;;;;;;12.05;8.13;;;6.80;99.90;;;;;;5052171;28;20047;-51
2023/01/01 05:50:25;;;;;;;12.35;9.63;;;6.90;99.90;;;;;;5052199;28;20424;-54
2023/01/01 05:52:51;;;;;;;12.68;8.32;;;7.00;99.90;;;;;;5052465;28;20577;-56
2023/01/01 05:55:16;;;;;;;14.27;10.25;;;7.00;99.90;;;;;;5052520;28;20025;-56
2023/01/01 05:57:42;;;;;;;14.75;9.65;;;;;;;;;;5053089;28;20029;-53
2023/01/01 06:00:09;;;;;;;15.60;11.40;;;7.50;99.90;;;;;;5052844;28;20076;-54
2023/01/01 06:02:34;;;;;;;165.90;81.05;;;7.70;99.90;;;;;;5052579;28;20040;-54
2023/01/01 06:05:00;;;;;;;52.90;31.13;;;7.80;99.90;;;;;;5052203;28;20037;-53
2023/01/01 06:07:26;;;;;;;44.58;24.73;;;8.00;99.90;;;;;;5052542;28;20029;-54
2023/01/01 06:09:52;;;;;;;50.80;31.10;;;;;;;;;;5052732;28;20111;-56
2023/01/01 06:12:18;;;;;;;33.90;25.10;;;8.20;99.90;;;;;;5052530;28;20057;-54
2023/01/01 06:14:43;;;;;;;23.67;15.68;;;8.10;99.90;;;;;;5050160;28;20114;-56
2023/01/01 06:17:09;;;;;;;16.42;14.00;;;8.10;99.90;;;;;;5051886;28;20033;-53
2023/01/01 06:19:35;;;;;;;15.68;11.10;;;8.20;99.90;;;;;;5053697;28;20427;-53
2023/01/01 06:22:01;;;;;;;14.57;10.95;;;8.00;99.90;;;;;;5069278;28;20032;-56
2023/01/01 06:24:26;;;;;;;13.80;10.77;;;8.10;99.90;;;;;;5055268;28;20041;-52
2023/01/01 06:26:52;;;;;;;15.00;10.38;;;8.30;99.90;;;;;;5055704;28;20051;-53
2023/01/01 06:29:18;;;;;;;16.75;13.07;;;8.30;99.90;;;;;;5056118;28;20036;-52
2023/01/01 06:31:43;;;;;;;22.52;13.45;;;8.40;99.90;;;;;;5053972;28;20040;-53
2023/01/01 06:34:09;;;;;;;35.42;21.10;;;8.20;99.90;;;;;;5055626;28;20598;-54
2023/01/01 06:36:35;;;;;;;34.40;21.00;;;8.40;99.90;;;;;;5055672;28;20494;-52
2023/01/01 06:39:02;;;;;;;44.45;22.77;;;8.40;99.90;;;;;;5055644;28;20017;-57
2023/01/01 06:41:29;;;;;;;98.30;49.05;;;8.50;99.90;;;;;;5055685;28;20063;-56
2023/01/01 06:43:56;;;;;;;107.85;59.20;;;8.60;99.90;;;;;;5055231;28;20044;-54
2023/01/01 06:46:25;;;;;;;101.22;54.03;;;8.70;99.90;;;;;;5055468;28;20377;-55
2023/01/01 06:49:00;;;;;;;80.53;45.22;;;8.80;99.90;;;;;;5055509;28;20060;-54
2023/01/01 06:51:36;;;;;;;70.80;40.05;;;8.80;99.90;;;;;;5055313;28;20395;-54
2023/01/01 06:54:03;;;;;;;79.63;43.13;;;;;;;;;;5055240;28;20032;-56
2023/01/01 06:56:30;;;;;;;68.95;39.60;;;;;;;;;;5070866;28;20382;-55
2023/01/01 06:58:56;;;;;;;57.58;33.33;;;11.60;99.90;;;;;;5055139;28;20377;-56
2023/01/01 07:01:24;;;;;;;59.85;33.30;;;;;;;;;;5053494;28;20033;-53
2023/01/01 07:03:54;;;;;;;54.53;32.38;;;14.30;99.90;;;;;;5055286;28;20064;-55
2023/01/01 07:06:22;;;;;;;47.80;29.60;;;15.30;99.90;;;;;;5055202;28;20029;-55
2023/01/01 07:08:48;;;;;;;29.33;20.27;;;;;;;;;;5055390;28;20068;-56
2023/01/01 07:11:14;;;;;;;34.33;21.55;;;;;;;;;;5054996;28;20067;-54
2023/01/01 07:13:40;;;;;;;29.70;22.20;;;18.10;99.90;;;;;;5055250;28;20029;-54
2023/01/01 07:16:06;;;;;;;21.25;15.98;;;;;;;;;;5054891;28;20427;-53
2023/01/01 07:18:32;;;;;;;19.50;15.85;;;19.30;99.90;;;;;;5053209;28;20112;-53
2023/01/01 07:21:00;;;;;;;58.33;45.35;;;19.60;98.40;;;;;;5069677;28;20430;-51
2023/01/01 07:23:27;;;;;;;84.88;51.50;;;19.70;97.80;;;;;;5055043;28;20040;-52
2023/01/01 07:25:54;;;;;;;63.80;32.35;;;20.30;97.20;;;;;;5054750;28;20029;-53
2023/01/01 07:28:21;;;;;;;43.63;26.83;;;21.10;99.90;;;;;;5054608;28;20451;-54
2023/01/01 07:30:48;;;;;;;25.48;18.70;;;;;;;;;;5054328;28;20025;-53
2023/01/01 07:33:16;;;;;;;22.27;17.42;;;22.00;99.90;;;;;;5054605;28;20412;-53
2023/01/01 07:35:46;;;;;;;24.08;18.83;;;22.10;99.90;;;;;;5055134;28;20032;-54
2023/01/01 07:38:12;;;;;;;24.73;19.95;;;;;;;;;;5054615;28;20058;-53
2023/01/01 07:40:39;;;;;;;21.52;19.20;;;;;;;;;;5054766;28;20482;-54
2023/01/01 07:43:04;;;;;;;18.23;15.13;;;23.70;90.10;;;;;;5054222;28;20535;-52
2023/01/01 07:45:31;;;;;;;18.27;16.25;;;23.00;89.00;;;;;;5054925;28;20033;-52
2023/01/01 07:47:58;;;;;;;18.30;16.35;;;22.60;90.10;;;;;;5054281;28;20490;-53
2023/01/01 07:50:26;;;;;;;18.40;16.00;;;23.70;89.10;;;;;;5054224;28;20464;-54
2023/01/01 07:52:52;;;;;;;23.10;17.23;;;22.00;93.10;;;;;;5054094;28;20044;-54
2023/01/01 07:55:19;;;;;;;23.35;17.27;;;21.50;90.20;;;;;;5054500;28;20107;-53
2023/01/01 07:57:45;;;;;;;19.00;14.00;;;21.00;90.30;;;;;;5054649;28;20025;-53
2023/01/01 08:00:14;;;;;;;14.52;12.63;;;21.70;90.00;;;;;;5054009;28;20480;-53
2023/01/01 08:02:40;;;;;;;83.78;34.28;;;;;;;;;;5054173;28;20496;-54
2023/01/01 08:05:07;;;;;;;131.00;77.53;;;;;;;;;;5053530;28;20047;-53
2023/01/01 08:07:33;;;;;;;76.78;38.85;;;;;;;;;;5054107;28;20029;-54
2023/01/01 08:09:59;;;;;;;71.20;32.00;;;;;;;;;;5068850;28;20045;-54
2023/01/01 08:12:25;;;;;;;42.85;23.75;;;;;;;;;;5053813;28;20427;-54
2023/01/01 08:14:51;;;;;;;54.60;25.30;;;;;;;;;;5053874;28;20017;-54
2023/01/01 08:17:17;;;;;;;19.10;14.63;;;27.20;81.60;;;;;;5053714;28;20033;-53
2023/01/01 08:19:48;;;;;;;49.83;36.80;;;26.20;80.80;;;;;;5053792;28;20035;-55
2023/01/01 08:22:14;;;;;;;49.15;39.45;;;24.70;83.00;;;;;;5053570;28;20029;-53
2023/01/01 08:24:40;;;;;;;24.60;20.52;;;25.00;83.90;;;;;;5053766;28;20071;-53
2023/01/01 08:27:06;;;;;;;20.83;17.00;;;25.40;83.40;;;;;;5053655;28;20421;-56
2023/01/01 08:29:31;;;;;;;19.92;18.13;;;25.30;83.50;;;;;;5053950;28;20025;-53
2023/01/01 08:31:57;;;;;;;16.90;15.20;;;;;;;;;;5053502;28;20424;-54
2023/01/01 08:34:23;;;;;;;16.42;14.73;;;26.60;82.30;;;;;;5053382;28;20586;-54
2023/01/01 08:36:49;;;;;;;16.25;13.65;;;;;;;;;;5053571;28;20033;-55
2023/01/01 08:39:15;;;;;;;16.75;13.43;;;;;;;;;;5053578;28;20036;-55
2023/01/01 08:41:41;;;;;;;17.20;15.43;;;28.70;80.70;;;;;;5052693;28;20024;-54
2023/01/01 08:44:07;;;;;;;17.70;15.68;;;29.10;80.50;;;;;;5053231;28;20501;-55
2023/01/01 08:46:32;;;;;;;17.02;15.35;;;29.00;79.90;;;;;;5053345;28;20075;-54
2023/01/01 08:48:58;;;;;;;16.67;14.82;;;29.60;79.10;;;;;;5053311;28;20025;-55
2023/01/01 08:51:24;;;;;;;16.77;15.02;;;;;;;;;;5053239;28;20040;-55
2023/01/01 08:53:50;;;;;;;18.63;16.15;;;29.80;78.10;;;;;;5053307;28;20473;-55
2023/01/01 08:56:16;;;;;;;17.75;15.95;;;29.70;78.00;;;;;;5052975;28;20040;-55
2023/01/01 08:58:42;;;;;;;18.38;16.38;;;;;;;;;;5053333;28;20540;-55
2023/01/01 09:01:09;;;;;;;19.17;17.13;;;;;;;;;;5053148;28;20036;-54
2023/01/01 09:03:36;;;;;;;19.50;17.45;;;;;;;;;;5050974;28;20044;-54
2023/01/01 09:06:02;;;;;;;18.35;16.55;;;;;;;;;;5050945;28;20044;-54
2023/01/01 09:08:28;;;;;;;16.98;15.38;;;28.80;77.50;;;;;;5050921;28;20040;-55
2023/01/01 09:10:59;;;;;;;18.52;16.02;;;27.00;78.00;;;;;;5051021;28;20551;-55
2023/01/01 09:13:25;;;;;;;16.63;15.02;;;27.20;79.40;;;;;;5050985;28;20044;-54
2023/01/01 09:15:51;;;;;;;16.85;15.18;;;27.20;79.90;;;;;;5051021;28;20029;-54
2023/01/01 09:18:17;;;;;;;17.02;15.43;;;27.70;79.60;;;;;;5050810;28;20037;-54
2023/01/01 09:20:43;;;;;;;18.52;16.83;;;;;;;;;;5050896;28;20053;-54
2023/01/01 09:23:10;;;;;;;16.83;15.27;;;;;;;;;;5050757;28;20128;-54
2023/01/01 09:25:36;;;;;;;18.33;16.60;;;;;;;;;;5050702;28;20095;-54
2023/01/01 09:28:07;;;;;;;20.48;18.38;;;;;;;;;;5050664;28;20386;-55
2023/01/01 09:30:34;;;;;;;18.50;16.70;;;;;;;;;;5050764;28;20040;-54
2023/01/01 09:33:01;;;;;;;17.05;15.48;;;;;;;;;;5050750;28;20067;-55
2023/01/01 09:35:26;;;;;;;14.95;13.55;;;27.70;77.50;;;;;;5052486;28;20116;-55
2023/01/01 09:37:53;;;;;;;17.40;15.70;;;28.20;78.30;;;;;;5052854;28;20053;-54
2023/01/01 09:40:46;;;;;;;18.17;16.48;;;27.90;79.30;;;;;;5052641;28;20032;-54
2023/01/01 09:43:26;;;;;;;19.63;17.63;;;28.80;78.50;;;;;;5052665;28;20392;-54
2023/01/01 09:46:00;;;;;;;15.15;13.65;;;;;;;;;;5052936;28;20486;-54
2023/01/01 09:48:28;;;;;;;13.43;12.05;;;;;;;;;;5052937;28;20025;-55
2023/01/01 09:50:55;;;;;;;14.93;13.52;;;28.50;75.90;;;;;;5052691;28;20021;-54
2023/01/01 09:53:36;;;;;;;12.77;11.57;;;27.90;77.60;;;;;;5054335;28;20045;-55
2023/01/01 09:56:04;;;;;;;14.27;13.07;;;28.00;77.60;;;;;;5056624;28;20040;-54
2023/01/01 09:58:37;;;;;;;20.23;18.83;;;;;;;;;;5056420;28;20066;-54
2023/01/01 10:01:29;;;;;;;12.73;11.52;;;26.70;91.50;;;;;;5056348;28;20029;-55
2023/01/01 10:04:17;;;;;;;12.80;11.52;;;27.30;95.70;;;;;;5056286;28;20076;-55
2023/01/01 10:06:56;;;;;;;12.27;11.07;;;26.60;78.00;;;;;;5056519;28;20031;-54
2023/01/01 10:09:54;;;;;;;12.88;11.57;;;27.20;79.10;;;;;;5056259;28;20021;-54
2023/01/01 10:12:20;;;;;;;12.57;11.35;;;27.80;78.50;;;;;;5014145;28;20120;-55
2023/01/01 10:14:51;;;;;;;13.65;12.25;;;26.90;78.80;;;;;;5014418;28;20121;-54
2023/01/01 10:17:43;;;;;;;13.45;12.20;;;27.00;78.30;;;;;;5014358;28;20046;-54
2023/01/01 10:20:19;;;;;;;;;;;27.30;79.10;;;;;;4923306;29;20031;-55
2023/01/01 10:22:48;;;;;;;13.23;10.77;;;27.20;78.80;;;;;;4936219;29;20350;-54
2023/01/01 10:25:21;;;;;;;12.23;10.93;;;27.70;78.70;;;;;;4936351;29;20047;-54
2023/01/01 10:27:53;;;;;;;14.52;11.48;;;27.30;78.80;;;;;;4936685;29;20031;-55
2023/01/01 10:30:21;;;;;;;13.95;10.98;;;27.10;78.60;;;;;;4936442;29;20156;-55
2023/01/01 10:32:49;;;;;;;12.77;11.48;;;27.20;78.90;;;;;;4936460;29;20044;-54
2023/01/01 10:35:38;;;;;;;11.75;10.48;;;26.90;78.50;;;;;;4936216;29;20059;-54
2023/01/01 10:38:04;;;;;;;10.40;9.07;;;27.60;78.40;;;;;;4936219;29;20432;-55
2023/01/01 10:40:31;;;;;;;10.70;9.32;;;27.90;78.40;;;;;;4936215;29;20038;-54
2023/01/01 10:42:58;;;;;;;9.75;8.80;;;;;;;;;;4936261;29;20040;-55
2023/01/01 10:45:31;;;;;;;9.95;8.57;;;28.00;96.10;;;;;;4936231;29;20039;-55
2023/01/01 10:48:12;;;;;;;8.40;7.60;;;;;;;;;;4936093;29;20063;-55
2023/01/01 10:50:52;;;;;;;10.13;8.65;;;28.00;76.60;;;;;;4974668;28;20039;-54
2023/01/01 10:53:30;;;;;;;9.65;8.65;;;28.20;77.30;;;;;;4974470;28;20089;-55
2023/01/01 10:56:16;;;;;;;13.90;8.32;;;28.70;77.30;;;;;;4975633;28;20479;-56
2023/01/01 10:58:51;;;;;;;9.85;8.25;;;29.00;77.10;;;;;;5035327;28;20057;-55
2023/01/01 11:01:17;;;;;;;9.38;8.48;;;29.40;77.10;;;;;;5035318;28;20109;-54
2023/01/01 11:04:01;;;;;;;12.02;10.43;;;;;;;;;;5034894;28;20112;-55
2023/01/01 11:06:35;;;;;;;10.32;8.25;;;29.30;76.20;;;;;;5035151;28;20064;-55
2023/01/01 11:09:20;;;;;;;11.43;9.02;;;28.70;76.00;;;;;;5035594;28;20052;-55
2023/01/01 11:11:47;;;;;;;11.05;8.75;;;28.80;76.90;;;;;;5034865;28;20129;-54
2023/01/01 11:14:39;;;;;;;11.48;8.20;;;28.90;76.60;;;;;;5034905;28;20033;-54
2023/01/01 11:17:07;;;;;;;13.07;9.00;;;28.80;76.10;;;;;;5033053;28;20038;-55
2023/01/01 11:19:36;;;;;;;10.27;9.18;;;28.60;76.80;;;;;;5034201;28;20025;-54
2023/01/01 11:22:03;;;;;;;14.02;10.95;;;27.70;77.60;;;;;;5034125;28;20116;-54
2023/01/01 11:24:34;;;;;;;14.02;11.60;;;27.40;77.50;;;;;;5034224;28;20072;-54
2023/01/01 11:27:22;;;;;;;11.25;9.88;;;27.40;77.70;;;;;;5033845;28;20568;-54
2023/01/01 11:29:53;;;;;;;25.38;18.55;;;26.60;77.70;;;;;;5033657;28;20037;-54
2023/01/01 11:32:22;;;;;;;26.05;22.40;;;26.90;80.00;;;;;;5033715;28;20057;-54
2023/01/01 11:34:59;;;;;;;28.13;22.73;;;26.80;79.90;;;;;;5033577;28;20030;-54
2023/01/01 11:37:31;;;;;;;25.55;22.95;;;;;;;;;;5033799;28;20029;-54
2023/01/01 11:39:58;;;;;;;29.67;25.08;;;25.90;99.90;;;;;;5033999;28;20057;-54
2023/01/01 11:42:25;;;;;;;28.80;25.52;;;;;;;;;;5033538;28;20036;-53
2023/01/01 11:44:55;;;;;;;22.38;20.02;;;;;;;;;;5033353;28;20102;-53
2023/01/01 11:47:25;;;;;;;22.92;19.33;;;25.90;95.20;;;;;;5033600;28;20496;-54
2023/01/01 11:49:55;;;;;;;24.05;17.63;;;;;;;;;;5047779;28;20037;-54
2023/01/01 11:52:48;;;;;;;19.20;16.15;;;25.50;99.90;;;;;;5033109;28;20049;-54
2023/01/01 11:55:14;;;;;;;18.85;15.68;;;;;;;;;;5032894;28;20032;-53
2023/01/01 11:58:05;;;;;;;20.30;15.02;;;25.60;99.90;;;;;;5033471;28;20384;-53
2023/01/01 12:00:35;;;;;;;17.05;15.18;;;25.30;83.30;;;;;;4991514;28;20426;-53
2023/01/01 12:03:11;;;;;;;17.02;14.63;;;25.30;90.60;;;;;;4990923;28;20039;-53
2023/01/01 12:05:47;;;;;;;20.13;15.40;;;;;;;;;;4991370;28;20050;-54
2023/01/01 12:08:21;;;;;;;16.90;13.38;;;25.10;99.90;;;;;;4991246;28;20034;-53
2023/01/01 12:10:53;;;;;;;15.80;12.73;;;;;;;;;;4974728;28;20038;-53
2023/01/01 12:13:26;;;;;;;15.60;13.38;;;;;;;;;;4991205;28;20035;-53
2023/01/01 12:15:57;;;;;;;14.80;11.88;;;24.20;85.80;;;;;;4991098;28;20105;-53
2023/01/01 12:18:23;;;;;;;18.45;13.25;;;24.30;84.60;;;;;;4991227;28;20050;-53
2023/01/01 12:20:56;;;;;;;15.88;12.18;;;;;;;;;;4991154;28;20437;-53
2023/01/01 12:23:22;;;;;;;14.98;12.35;;;26.30;87.80;;;;;;4991027;28;20467;-53
2023/01/01 12:25:59;;;;;;;14.93;11.75;;;23.50;86.60;;;;;;4990764;28;20124;-53
2023/01/01 12:29:19;;;;;;;14.93;12.48;;;23.40;86.50;;;;;;4991037;28;20058;-53
2023/01/01 12:32:05;;;;;;;13.60;10.10;;;22.60;89.50;;;;;;4933012;29;20067;-54
2023/01/01 12:34:59;;;;;;;15.57;11.10;;;22.30;92.90;;;;;;4933029;29;20034;-53
2023/01/01 12:37:51;;;;;;;15.38;10.75;;;22.70;93.10;;;;;;4949909;28;20042;-54
2023/01/01 12:40:28;;;;;;;14.65;12.18;;;22.40;86.60;;;;;;4963926;28;20441;-54
2023/01/01 12:43:06;;;;;;;17.75;12.98;;;22.30;87.10;;;;;;4971346;28;20390;-54
2023/01/01 12:45:52;;;;;;;15.85;12.35;;;22.30;87.90;;;;;;4971865;28;20058;-54
2023/01/01 12:48:46;;;;;;;16.70;13.23;;;22.20;88.40;;;;;;4972728;28;20499;-54
2023/01/01 12:51:50;;;;;;;20.48;14.45;;;22.20;88.80;;;;;;4972249;28;20035;-54
2023/01/01 12:54:57;;;;;;;17.17;12.43;;;21.90;88.50;;;;;;4971426;28;20043;-54
2023/01/01 12:57:47;;;;;;;17.50;14.63;;;21.70;88.90;;;;;;4936932;29;20055;-54
2023/01/01 13:00:17;;;;;;;18.45;15.80;;;21.50;90.10;;;;;;4953086;29;20408;-55
2023/01/01 13:03:10;;;;;;;22.90;17.30;;;21.50;90.20;;;;;;4953025;29;20040;-54
2023/01/01 13:05:46;;;;;;;19.55;15.40;;;21.80;90.60;;;;;;4906453;29;20051;-54
2023/01/01 13:08:12;;;;;;;20.77;12.57;;;21.20;90.10;;;;;;4899144;29;20540;-54
2023/01/01 13:10:42;;;;;;;22.33;17.48;;;21.50;90.80;;;;;;4915000;29;20119;-54
2023/01/01 13:13:10;;;;;;;17.77;14.65;;;21.40;90.20;;;;;;4914893;29;20060;-54
2023/01/01 13:15:36;;;;;;;14.20;11.30;;;21.90;90.20;;;;;;4914785;29;20051;-54
2023/01/01 13:18:06;;;;;;;16.20;12.45;;;22.20;90.40;;;;;;4914734;29;20028;-54
2023/01/01 13:20:35;;;;;;;15.43;11.25;;;22.40;89.50;;;;;;4914844;29;20040;-54
2023/01/01 13:23:01;;;;;;;13.75;11.63;;;22.60;89.70;;;;;;4914697;29;20044;-54